Tiempo atmosférico en la estación meteorológica de Fuentes de Andalucía, Sevilla (165 m.)



Fecha
DESCASC
Temp. máxima en grados centígrados (hora)
DESCASC
Temp. mínima en grados centígrados (hora)
DESCASC
Temp. media en grados centígrados
DESCASC
Racha de viento máxima en m/sg (hora)
DESCASC
Velocidad máxima media en intervalos de 10 minutos(hora)
DESCASC
Precipitaciones diarias en mm
DESCASC
Precipitaciones de 00:00 a 06:00 en mm
DESCASC
Precipitaciones de 06:00 a 12:00 en mm
DESCASC
Precipitaciones de 12:00 a 18:00 en mm
DESCASC
Precipitaciones de 18:00 a 24:00 en mm
DESCASC
19-01-2020 14.5 (15:20) 6.9 (23:59) 10.7 11.67 (20:30) 6.11 (17:20) 0.2 0 0 0.2 0
18-01-2020 14.8 (19:30) 8.8 (08:50) 11.8 11.11 (15:40) 8.61 (17:30) 10.8 0 3.4 5.6 1.8
17-01-2020 16.7 (17:30) 8.2 (02:50) 12.5 5.28 (00:40) 4.17 (00:10) 0.4 0 0.4 0 0
16-01-2020 17.4 (15:10) 4.6 (00:00) 11 5.83 (16:50) 4.17 (16:50) 0 0 0 0 0
15-01-2020 17 (15:40) 3.5 (00:00) 10.3 4.17 (10:30) 2.78 (10:30) 0 0 0 0 0
14-01-2020 14.5 (15:00) 4.2 (00:00) 9.3 4.17 (06:50) 2.5 (23:20) 0 0 0 0 0
13-01-2020 14.6 (16:00) 2.3 (00:00) 8.5 4.44 (01:40) 2.78 (22:50) 0 0 0 0 0
12-01-2020 15.7 (16:20) 3 (08:50) 9.3 4.72 (10:50) 2.78 (10:00) 0 0 0 0 0
11-01-2020 15.2 (16:40) 4.7 (00:00) 9.9 8.61 (11:50) 5 (12:00) 0 0 0 0 0
10-01-2020 14.9 (16:40) 6.2 (00:00) 10.5 5 (14:50) 3.33 (11:20) 0 0 0 0 0
09-01-2020 14.6 (15:30) 4.2 (00:00) 9.4 5.28 (14:50) 3.33 (16:10) 0 0 0 0 0
08-01-2020 17.3 (16:50) 4.4 (00:00) 10.8 6.11 (11:20) 3.61 (11:40) 0 0 0 0 0
07-01-2020 16.8 (16:10) 4.5 (00:00) 10.6 7.5 (11:40) 4.44 (11:40) 0 0 0 0 0
06-01-2020 16 (16:30) 4.5 (00:00) 10.3 4.72 (10:00) 3.06 (10:00) 0 0 0 0 0
05-01-2020 14.9 (15:20) 5.6 (00:00) 10.2 5.83 (14:10) 3.06 (10:30) 0 0 0 0 0
04-01-2020 12.8 (15:20) 5.7 (00:00) 9.3 8.61 (10:40) 4.17 (10:40) 0 0 0 0 0
03-01-2020 13.6 (16:00) 6.7 (00:00) 10.2 4.17 (07:30) 2.5 (07:00) 0 0 0 0 0
02-01-2020 14.9 (15:40) 4.5 (00:00) 9.7 3.89 (05:40) 2.5 (05:40) 0 0 0 0 0
01-01-2020 16.4 (16:40) 5.4 (00:00) 10.9 5.28 (00:40) 3.33 (00:30) 0 0 0 0 0
31-12-2019 16.1 (15:40) 5.8 (00:00) 11 6.39 (11:30) 3.61 (04:20) 0 0 0 0 0
30-12-2019 -- (--) -- (--) -- -- (--) -- (--) -- 0 0 0 --
29-12-2019 17.3 (15:20) 8.9 (00:00) 13.1 12.5 (12:40) 6.39 (12:40) 0 0 0 0 0
28-12-2019 19.9 (15:20) 9.4 (00:00) 14.6 9.17 (16:30) 5 (20:30) 0 0 0 0 0
27-12-2019 20.1 (15:30) 10.3 (00:00) 15.2 7.78 (13:40) 4.72 (01:40) 0 0 0 0 0
26-12-2019 18.9 (15:20) 9.4 (00:00) 14.1 7.22 (07:30) 5 (07:30) 0 0 0 0 0
25-12-2019 19 (16:20) 8.7 (00:00) 13.8 5.83 (05:20) 4.17 (05:20) 0 0 0 0 0
24-12-2019 19.5 (16:20) 10.2 (09:00) 14.8 10 (07:40) 5.83 (10:40) 0 0 0 0 0
23-12-2019 16.5 (15:40) 11.3 (00:00) 13.9 6.67 (14:10) 5 (00:10) 0 0 0 0 0

Gráficas

Temp. máximas Temp. mínimas Temp. medias Precipitaciones Rachas de viento máximas Velocidades máximas media en intervalos de 10 minutos

Datos horarios

Fecha y hora oficial Temperatura (ºC) Velocidad del viento (km/h) Dirección del viento Racha (km/h) Dirección de racha Precipitación (mm) Presión (hPa) Tendencia (hPa) Humedad (%)
2020-01-21 23:00:00 -- -- -- -- -- -- -- -- --
2020-01-21 22:00:00 7.7 5 Nordeste 10 Nordeste 0 -- -- 85
2020-01-21 21:00:00 8.3 5 Nordeste 13 Nordeste 0 -- -- 80
2020-01-21 20:00:00 9.6 5 Nordeste 12 Nordeste 0 -- -- 75
2020-01-21 19:00:00 9.9 6 Nordeste 16 Nordeste 0 -- -- 74
2020-01-21 18:00:00 -- -- -- -- -- -- -- -- --
2020-01-21 17:00:00 11.2 9 Nordeste 22 Nordeste 0 -- -- 65
2020-01-21 16:00:00 11.5 10 Nordeste 28 Nordeste 0 -- -- 63
2020-01-21 15:00:00 11.9 16 Nordeste 30 Nordeste 0 -- -- 62
2020-01-21 14:00:00 10.6 13 Nordeste 29 Nordeste 0 -- -- 65
2020-01-21 13:00:00 11.2 8 Nordeste 19 Nordeste 0 -- -- 66
2020-01-21 12:00:00 10.9 9 Nordeste 23 Nordeste 0 -- -- 64
2020-01-21 11:00:00 9.8 7 Nordeste 15 Norte 0 -- -- 69
2020-01-21 10:00:00 7 5 Nordeste 13 Nordeste 0 -- -- 79
2020-01-21 09:00:00 5.7 6 Nordeste 19 Nordeste 0 -- -- 83
2020-01-21 08:00:00 5.7 8 Nordeste 13 Nordeste 0 -- -- 83
2020-01-21 07:00:00 6.7 9 Nordeste 19 Nordeste 0 -- -- 79
2020-01-21 06:00:00 7.5 8 Nordeste 26 Este 0 -- -- 75
2020-01-21 05:00:00 8 15 Nordeste 26 Nordeste 0 -- -- 73
2020-01-21 04:00:00 7.7 9 Nordeste 19 Nordeste 0 -- -- 77
2020-01-21 03:00:00 7.2 7 Nordeste 19 Nordeste 0 -- -- 78
2020-01-21 02:00:00 7.3 8 Nordeste 18 Nordeste 0 -- -- 78
2020-01-21 01:00:00 7.9 12 Nordeste 32 Nordeste 0 -- -- 74
2020-01-21 00:00:00 8.4 15 Nordeste 32 Nordeste 0 -- -- 73
2020-01-20 23:00:00 9.1 13 Nordeste 34 Nordeste 0 -- -- 71
2020-01-20 22:00:00 9.4 15 Nordeste 35 Nordeste 0 -- -- 69
2020-01-20 21:00:00 9.4 18 Nordeste 32 Este 0 -- -- 66
2020-01-20 20:00:00 9.2 9 Nordeste 25 Nordeste 0 -- -- 67
2020-01-20 19:00:00 9.2 11 Nordeste 29 Nordeste 0 -- -- 65
2020-01-20 18:00:00 10.4 14 Nordeste 39 Este 0 -- -- 60
2020-01-20 17:00:00 10.8 22 Nordeste 46 Nordeste 0 -- -- 57
2020-01-20 16:00:00 11.2 22 Nordeste 44 Este 0 -- -- 56
2020-01-20 15:00:00 10.6 27 Nordeste 44 Este 0 -- -- 56
2020-01-20 14:00:00 9.7 26 Nordeste 51 Este 0 -- -- 56
2020-01-20 13:00:00 9.7 27 Nordeste 46 Nordeste 0 -- -- 58
2020-01-20 12:00:00 8.4 21 Nordeste 41 Nordeste 0 -- -- 60
2020-01-20 11:00:00 6.9 11 Nordeste 30 Nordeste 0 -- -- 69
2020-01-20 10:00:00 6.1 14 Nordeste 35 Este 0 -- -- 68
2020-01-20 09:00:00 5.7 21 Nordeste 34 Nordeste 0 -- -- 67
2020-01-20 08:00:00 5.2 13 Nordeste 22 Nordeste 0 -- -- 66
2020-01-20 07:00:00 5.7 10 Nordeste 23 Nordeste 0 -- -- 64
2020-01-20 06:00:00 5.6 16 Nordeste 32 Nordeste 0 -- -- 67
2020-01-20 05:00:00 5.9 15 Nordeste 28 Nordeste 0 -- -- 65
2020-01-20 04:00:00 5.8 10 Nordeste 26 Nordeste 0 -- -- 70
2020-01-20 03:00:00 6.2 15 Nordeste 34 Nordeste 0 -- -- 70
2020-01-20 02:00:00 6.4 15 Nordeste 31 Nordeste 0 -- -- 72
2020-01-20 01:00:00 6.7 14 Nordeste 30 Nordeste 0 -- -- 74
2020-01-20 00:00:00 6.9 12 Nordeste 36 Nordeste 0 -- -- 73
2020-01-19 23:00:00 7.5 17 Nordeste 32 Norte 0 -- -- 71
2020-01-19 22:00:00 8.4 15 Nordeste 34 Nordeste 0 -- -- 71
2020-01-19 21:00:00 8.8 15 Nordeste 42 Nordeste 0 -- -- 68
2020-01-19 20:00:00 10.7 21 Nordeste 40 Nordeste 0 -- -- 57
2020-01-19 19:00:00 11.3 11 Nordeste 29 Norte 0 -- -- 56
2020-01-19 18:00:00 12.1 15 Norte 39 Nordeste 0 -- -- 60
2020-01-19 17:00:00 13 17 Nordeste 39 Norte 0 -- -- 60
2020-01-19 16:00:00 13.7 19 Norte 38 Norte 0 -- -- 56
2020-01-19 15:00:00 13.4 20 Norte 36 Norte 0.2 -- -- 62
2020-01-19 14:00:00 13.6 14 Norte 27 Norte 0 -- -- 63
2020-01-19 13:00:00 13.2 14 Norte 25 Noroeste 0 -- -- 70
2020-01-19 12:00:00 12 14 Noroeste 20 Noroeste 0 -- -- 78
2020-01-19 11:00:00 10.9 14 Noroeste 18 Noroeste 0 -- -- 84
2020-01-19 10:00:00 9.1 8 Oeste 12 Oeste 0 -- -- 90
2020-01-19 09:00:00 8.8 7 Oeste 16 Noroeste 0 -- -- 89
2020-01-19 08:00:00 8.5 14 Noroeste 22 Noroeste 0 -- -- 89
2020-01-19 07:00:00 7.8 14 Oeste 23 Noroeste 0 -- -- 90
2020-01-19 06:00:00 8.5 15 Noroeste 21 Oeste 0 -- -- 92
2020-01-19 05:00:00 9.6 15 Oeste 22 Oeste 0 -- -- 93
2020-01-19 04:00:00 9.9 13 Oeste 16 Oeste 0 -- -- 95
2020-01-19 03:00:00 10.2 14 Oeste 20 Oeste 0 -- -- 95
2020-01-19 02:00:00 10.8 12 Sudoeste 25 Oeste 0 -- -- 95
2020-01-19 01:00:00 12 18 Oeste 27 Oeste 0 -- -- 97
2020-01-19 00:00:00 12.6 18 Oeste 40 Oeste 0 -- -- 97
2020-01-18 23:00:00 13.7 20 Oeste 34 Sudoeste 0 -- -- 98
2020-01-18 22:00:00 14.5 27 Sudoeste 40 Sudoeste 0 -- -- 98
2020-01-18 21:00:00 13.5 12 Oeste 34 Sudoeste 1.4 -- -- 99
2020-01-18 20:00:00 14.7 23 Sudoeste 38 Sudoeste 0.2 -- -- 97
2020-01-18 19:00:00 14.7 27 Sudoeste 37 Sudoeste 0.2 -- -- 97
2020-01-18 18:00:00 14.5 30 Sudoeste 40 Sudoeste 0 -- -- 97
2020-01-18 17:00:00 14.5 28 Sudoeste 40 Sudoeste 1 -- -- 97
2020-01-18 16:00:00 14.3 28 Sudoeste 40 Sudoeste 1.6 -- -- 96
2020-01-18 15:00:00 14.1 25 Sudoeste 31 Sudoeste 2.6 -- -- 95
2020-01-18 14:00:00 13.6 16 Sudoeste 22 Sudoeste 0.2 -- -- 95
2020-01-18 13:00:00 11.8 10 Sur 21 Sur 0.2 -- -- 93
2020-01-18 12:00:00 9.9 7 Sudeste 14 Sur 1 -- -- 93
2020-01-18 11:00:00 9.4 9 Sudeste 18 Sudeste 1.8 -- -- 94
2020-01-18 10:00:00 9 4 Este 8 Este 0.4 -- -- 94
2020-01-18 09:00:00 8.8 6 Este 10 Este 0.2 -- -- 93
2020-01-18 08:00:00 9 3 Nordeste 11 Nordeste 0 -- -- 93
2020-01-18 07:00:00 9 5 Norte 11 Sudeste 0 -- -- 92
2020-01-18 06:00:00 9 3 Sudeste 8 Este 0 -- -- 92
2020-01-18 05:00:00 9.2 5 Este 7 Sudeste 0 -- -- 90
2020-01-18 04:00:00 9.7 3 Sur 8 Sudeste 0 -- -- 89
2020-01-18 03:00:00 10.3 4 Sur 8 Sur 0 -- -- 88
2020-01-18 02:00:00 9.9 3 Sudoeste 8 Sudeste 0 -- -- 90
2020-01-18 01:00:00 10.1 5 Este 7 Este 0 -- -- 90
2020-01-18 00:00:00 10.7 5 Este 10 Sudeste 0 -- -- 88
2020-01-17 23:00:00 11.4 3 Este 7 Nordeste 0 -- -- 88
2020-01-17 22:00:00 11.7 5 Nordeste 8 Nordeste 0 -- -- 87
2020-01-17 21:00:00 11.6 5 Nordeste 11 Nordeste 0 -- -- 87
2020-01-17 20:00:00 12.8 5 Nordeste 9 Nordeste 0 -- -- 81
2020-01-17 19:00:00 14.6 6 Sudoeste 7 Sudoeste 0 -- -- 74
2020-01-17 18:00:00 16.3 0 Calma 4 Sudeste 0 -- -- 71
2020-01-17 17:00:00 16.5 3 Sudeste 7 Sudeste 0 -- -- 70
2020-01-17 16:00:00 16.2 4 Este 9 Este 0 -- -- 72
2020-01-17 15:00:00 15.9 2 Este 8 Sudeste 0 -- -- 73
2020-01-17 14:00:00 14.9 4 Este 9 Este 0 -- -- 76
2020-01-17 13:00:00 13.8 5 Nordeste 11 Nordeste 0 -- -- 79
2020-01-17 12:00:00 13.2 4 Nordeste 9 Nordeste 0 -- -- 81
2020-01-17 11:00:00 11.2 5 Este 10 Este 0 -- -- 84
2020-01-17 10:00:00 9.7 5 Este 9 Este 0 -- -- 84
2020-01-17 09:00:00 9.4 5 Nordeste 9 Nordeste 0.4 -- -- 84
2020-01-17 08:00:00 9.6 6 Nordeste 9 Nordeste 0 -- -- 81
2020-01-17 07:00:00 9.6 4 Este 9 Este 0 -- -- 77
2020-01-17 06:00:00 9.5 3 Nordeste 9 Nordeste 0 -- -- 79
2020-01-17 05:00:00 8.9 5 Nordeste 9 Nordeste 0 -- -- 80
2020-01-17 04:00:00 8.8 2 Sudeste 9 Este 0 -- -- 82
2020-01-17 03:00:00 8.2 6 Este 10 Nordeste 0 -- -- 86
2020-01-17 02:00:00 9.8 0 Calma 9 Sur 0 -- -- 80
2020-01-17 01:00:00 10.7 10 Sur 19 Sur 0 -- -- 78
2020-01-17 00:00:00 10.3 15 Sur 19 Sur 0 -- -- 80
2020-01-16 23:00:00 10.3 14 Sur 17 Sudoeste 0 -- -- 78
2020-01-16 22:00:00 10.8 11 Sur 18 Sudoeste 0 -- -- 72
2020-01-16 21:00:00 10.8 13 Oeste 18 Oeste 0 -- -- 72
2020-01-16 20:00:00 11.8 12 Oeste 15 Oeste 0 -- -- 65
2020-01-16 19:00:00 13.3 9 Oeste 15 Oeste 0 -- -- 56
2020-01-16 18:00:00 15.4 12 Sudoeste 20 Sudoeste 0 -- -- 52
2020-01-16 17:00:00 17.2 12 Sudoeste 21 Sudoeste 0 -- -- 48
2020-01-16 16:00:00 17.4 13 Sudoeste 18 Sudoeste 0 -- -- 46
2020-01-16 15:00:00 17.2 2 Sudoeste 5 Sudoeste 0 -- -- 48
2020-01-16 14:00:00 15.6 4 Este 9 Nordeste 0 -- -- 53
2020-01-16 13:00:00 14.1 5 Nordeste 13 Este 0 -- -- 59
2020-01-16 12:00:00 12.6 7 Este 14 Este 0 -- -- 64
2020-01-16 11:00:00 10.1 6 Nordeste 14 Nordeste 0 -- -- 72
2020-01-16 10:00:00 7.3 5 Nordeste 14 Este 0 -- -- 82
2020-01-16 09:00:00 5.3 8 Este 13 Este 0 -- -- 87
2020-01-16 08:00:00 4.9 10 Este 13 Este 0 -- -- 90
2020-01-16 07:00:00 4.7 6 Nordeste 10 Nordeste 0 -- -- 92
2020-01-16 06:00:00 5.6 4 Este 9 Este 0 -- -- 91
2020-01-16 05:00:00 7.3 4 Este 9 Este 0 -- -- 91
2020-01-16 04:00:00 7.5 5 Este 9 Este 0 -- -- 87
2020-01-16 03:00:00 8.9 2 Sudeste 8 Oeste 0 -- -- 83
2020-01-16 02:00:00 9.5 5 Este 7 Este 0 -- -- 82
2020-01-16 01:00:00 9.5 4 Sudeste 9 Sudeste 0 -- -- 82
2020-01-16 00:00:00 10.7 3 Sudeste 8 Sudeste 0 -- -- 82
2020-01-15 23:00:00 10.9 5 Sudeste 9 Este 0 -- -- 85
2020-01-15 22:00:00 11 3 Este 5 Este 0 -- -- 84
2020-01-15 21:00:00 12.9 3 Sudoeste 5 Sudoeste 0 -- -- 80
2020-01-15 20:00:00 13.5 4 Sudoeste 11 Sudoeste 0 -- -- 77
2020-01-15 19:00:00 14.1 5 Sudoeste 10 Sur 0 -- -- 69
2020-01-15 18:00:00 15.8 5 Sur 13 Sur 0 -- -- 66
2020-01-15 17:00:00 16.7 4 Sudoeste 11 Sudoeste 0 -- -- 66
2020-01-15 16:00:00 16.6 3 Oeste 13 Sudoeste 0 -- -- 64
2020-01-15 15:00:00 16.9 6 Sudoeste 10 Oeste 0 -- -- 64
2020-01-15 14:00:00 15 3 Este 10 Nordeste 0 -- -- 68
2020-01-15 13:00:00 12.9 5 Nordeste 10 Norte 0 -- -- 71
2020-01-15 12:00:00 11.4 7 Este 13 Este 0 -- -- 71
2020-01-15 11:00:00 8.9 9 Este 15 Este 0 -- -- 78
2020-01-15 10:00:00 5.9 8 Este 13 Este 0 -- -- 90
2020-01-15 09:00:00 3.6 5 Nordeste 10 Nordeste 0 -- -- 92
2020-01-15 08:00:00 3.7 5 Nordeste 9 Nordeste 0 -- -- 92
2020-01-15 07:00:00 4 5 Nordeste 9 Nordeste 0 -- -- 91
2020-01-15 06:00:00 4.4 6 Este 9 Este 0 -- -- 91
2020-01-15 05:00:00 4.8 5 Este 8 Este 0 -- -- 90
2020-01-15 04:00:00 5.8 5 Este 10 Este 0 -- -- 87
2020-01-15 03:00:00 7.5 4 Sudeste 10 Sudeste 0 -- -- 83
2020-01-15 02:00:00 8.3 8 Sudeste 12 Sudeste 0 -- -- 81
2020-01-15 01:00:00 8.6 8 Sudeste 12 Sudeste 0 -- -- 79
2020-01-15 00:00:00 9.4 9 Sudeste 14 Sudeste 0 -- -- 77
2020-01-14 23:00:00 9.9 6 Sudeste 9 Sudeste 0 -- -- 78
2020-01-14 22:00:00 9.9 0 Calma 5 Este 0 -- -- 79
2020-01-14 21:00:00 10.1 0 Calma 4 Noroeste 0 -- -- 78
2020-01-14 20:00:00 10.8 4 Noroeste 5 Noroeste 0 -- -- 76
2020-01-14 19:00:00 11.3 3 Noroeste 8 Oeste 0 -- -- 74
2020-01-14 18:00:00 13.1 2 Sudoeste 11 Oeste 0 -- -- 67
2020-01-14 17:00:00 13.7 7 Oeste 13 Sudoeste 0 -- -- 64
2020-01-14 16:00:00 14.2 7 Oeste 13 Sur 0 -- -- 59
2020-01-14 15:00:00 14.5 6 Sur 11 Sur 0 -- -- 59
2020-01-14 14:00:00 13.4 4 Este 7 Nordeste 0 -- -- 65
2020-01-14 13:00:00 12 5 Nordeste 10 Nordeste 0 -- -- 69
2020-01-14 12:00:00 9.5 5 Nordeste 12 Nordeste 0 -- -- 77
2020-01-14 11:00:00 7.9 5 Nordeste 11 Nordeste 0 -- -- 82
2020-01-14 10:00:00 6.2 6 Nordeste 13 Este 0 -- -- 86
2020-01-14 09:00:00 5.4 7 Este 12 Este 0 -- -- 88
2020-01-14 08:00:00 5 7 Este 13 Nordeste 0 -- -- 91
2020-01-14 07:00:00 5.1 4 Nordeste 15 Nordeste 0 -- -- 91
2020-01-14 06:00:00 4.6 6 Este 11 Este 0 -- -- 91
2020-01-14 05:00:00 4.2 7 Este 12 Este 0 -- -- 90
2020-01-14 04:00:00 4.5 8 Este 11 Este 0 -- -- 89
2020-01-14 03:00:00 5.6 8 Este 10 Este 0 -- -- 87
2020-01-14 02:00:00 4.9 6 Este 10 Nordeste 0 -- -- 87
2020-01-14 01:00:00 7.7 3 Este 9 Sudeste 0 -- -- 77
2020-01-14 00:00:00 9 5 Sudeste 14 Sudeste 0 -- -- 73
2020-01-13 23:00:00 8.6 9 Sudeste 14 Sudeste 0 -- -- 76
2020-01-13 22:00:00 10.1 5 Sudeste 8 Sudeste 0 -- -- 72
2020-01-13 21:00:00 10.3 0 Calma 4 Sur 0 -- -- 71
2020-01-13 20:00:00 10.7 3 Sudoeste 4 Sudoeste 0 -- -- 70
2020-01-13 19:00:00 11.1 0 Calma 8 Noroeste 0 -- -- 69
2020-01-13 18:00:00 12.4 6 Noroeste 10 Oeste 0 -- -- 68
2020-01-13 17:00:00 14.2 5 Oeste 9 Oeste 0 -- -- 62
2020-01-13 16:00:00 14.6 0 Calma 6 Noroeste 0 -- -- 57
2020-01-13 15:00:00 13.7 2 Nordeste 8 Sudeste 0 -- -- 60
2020-01-13 14:00:00 12.9 3 Este 9 Nordeste 0 -- -- 63
2020-01-13 13:00:00 11.1 5 Nordeste 13 Nordeste 0 -- -- 70
2020-01-13 12:00:00 9.4 6 Nordeste 12 Nordeste 0 -- -- 76
2020-01-13 11:00:00 7.4 6 Nordeste 13 Nordeste 0 -- -- 84
2020-01-13 10:00:00 4.2 5 Nordeste 11 Nordeste 0 -- -- 93
2020-01-13 09:00:00 2.4 6 Nordeste 10 Este 0 -- -- 93
2020-01-13 08:00:00 2.6 5 Nordeste 12 Este 0 -- -- 92
2020-01-13 07:00:00 2.7 6 Nordeste 10 Nordeste 0 -- -- 92
2020-01-13 06:00:00 3 7 Este 11 Este 0 -- -- 91
2020-01-13 05:00:00 3.4 6 Nordeste 11 Nordeste 0 -- -- 89
2020-01-13 04:00:00 4.1 5 Nordeste 12 Nordeste 0 -- -- 86
2020-01-13 03:00:00 4.6 6 Este 9 Este 0 -- -- 84
2020-01-13 02:00:00 4.8 6 Este 16 Este 0 -- -- 83
2020-01-13 01:00:00 5.8 7 Este 10 Este 0 -- -- 80
2020-01-13 00:00:00 7.3 5 Nordeste 8 Nordeste 0 -- -- 74
2020-01-12 23:00:00 8.1 5 Este 8 Este 0 -- -- 71
2020-01-12 22:00:00 9.1 3 Este 5 Nordeste 0 -- -- 66
2020-01-12 21:00:00 9.7 3 Este 5 Este 0 -- -- 64
2020-01-12 20:00:00 10.8 3 Nordeste 4 Nordeste 0 -- -- 61
2020-01-12 19:00:00 12.2 2 Este 3 Este 0 -- -- 58
2020-01-12 18:00:00 14.5 0 Calma 7 Nordeste 0 -- -- 50
2020-01-12 17:00:00 15.3 3 Nordeste 10 Este 0 -- -- 48
2020-01-12 16:00:00 15.4 2 Este 9 Nordeste 0 -- -- 53
2020-01-12 15:00:00 14.5 4 Nordeste 10 Nordeste 0 -- -- 59
2020-01-12 14:00:00 13.5 4 Nordeste 14 Nordeste 0 -- -- 64
2020-01-12 13:00:00 12 5 Nordeste 14 Nordeste 0 -- -- 71
2020-01-12 12:00:00 10.1 7 Nordeste 14 Nordeste 0 -- -- 76
2020-01-12 11:00:00 7.9 8 Nordeste 17 Este 0 -- -- 82
2020-01-12 10:00:00 5.3 10 Este 15 Este 0 -- -- 90
2020-01-12 09:00:00 3 7 Este 10 Este 0 -- -- 92
2020-01-12 08:00:00 3.5 5 Nordeste 10 Este 0 -- -- 90
2020-01-12 07:00:00 3.6 4 Nordeste 9 Nordeste 0 -- -- 90
2020-01-12 06:00:00 3.6 4 Nordeste 9 Este 0 -- -- 89
2020-01-12 05:00:00 4 6 Este 9 Este 0 -- -- 88
2020-01-12 04:00:00 4.7 5 Este 15 Este 0 -- -- 87
2020-01-12 03:00:00 5.6 6 Este 9 Este 0 -- -- 82
2020-01-12 02:00:00 6.7 4 Nordeste 7 Este 0 -- -- 76
2020-01-12 01:00:00 7.4 5 Este 14 Sudeste 0 -- -- 73
2020-01-12 00:00:00 8.4 6 Este 11 Este 0 -- -- 67
2020-01-11 23:00:00 10.3 7 Nordeste 10 Nordeste 0 -- -- 60
2020-01-11 22:00:00 10 3 Nordeste 7 Noroeste 0 -- -- 61
2020-01-11 21:00:00 10.5 5 Norte 7 Noroeste 0 -- -- 61
2020-01-11 20:00:00 11.3 0 Calma 3 Nordeste 0 -- -- 58
2020-01-11 19:00:00 12.3 0 Calma 4 Nordeste 0 -- -- 55
2020-01-11 18:00:00 14.3 2 Nordeste 10 Nordeste 0 -- -- 52
2020-01-11 17:00:00 15 5 Nordeste 11 Nordeste 0 -- -- 49
2020-01-11 16:00:00 15 5 Nordeste 14 Nordeste 0 -- -- 47
2020-01-11 15:00:00 14.6 6 Nordeste 20 Nordeste 0 -- -- 50
2020-01-11 14:00:00 13.7 9 Nordeste 24 Nordeste 0 -- -- 52
2020-01-11 13:00:00 12.4 12 Nordeste 30 Este 0 -- -- 56
2020-01-11 12:00:00 10.6 18 Nordeste 31 Este 0 -- -- 60
2020-01-11 11:00:00 8.9 12 Nordeste 21 Nordeste 0 -- -- 66
2020-01-11 10:00:00 6.6 11 Nordeste 18 Nordeste 0 -- -- 74
2020-01-11 09:00:00 5.1 8 Nordeste 15 Este 0 -- -- 76
2020-01-11 08:00:00 5.6 9 Nordeste 17 Este 0 -- -- 73
2020-01-11 07:00:00 5.7 9 Nordeste 18 Nordeste 0 -- -- 73
2020-01-11 06:00:00 4.9 6 Nordeste 12 Este 0 -- -- 78
2020-01-11 05:00:00 5.6 6 Este 13 Nordeste 0 -- -- 75
2020-01-11 04:00:00 5.7 8 Nordeste 15 Nordeste 0 -- -- 76
2020-01-11 03:00:00 6 9 Nordeste 17 Nordeste 0 -- -- 75
2020-01-11 02:00:00 5.9 8 Nordeste 14 Nordeste 0 -- -- 76
2020-01-11 01:00:00 6.4 5 Nordeste 11 Nordeste 0 -- -- 74
2020-01-11 00:00:00 6.7 5 Nordeste 9 Norte 0 -- -- 74
2020-01-10 23:00:00 7.4 4 Nordeste 14 Nordeste 0 -- -- 73
2020-01-10 22:00:00 8.1 6 Nordeste 11 Nordeste 0 -- -- 74
2020-01-10 21:00:00 9.4 5 Nordeste 10 Este 0 -- -- 83
2020-01-10 20:00:00 10.5 4 Nordeste 8 Nordeste 0 -- -- 79
2020-01-10 19:00:00 11.9 3 Nordeste 6 Este 0 -- -- 73
2020-01-10 18:00:00 13.8 2 Este 9 Norte 0 -- -- 68
2020-01-10 17:00:00 14.8 4 Nordeste 15 Nordeste 0 -- -- 63
2020-01-10 16:00:00 14.4 7 Nordeste 17 Nordeste 0 -- -- 67
2020-01-10 15:00:00 14.3 8 Nordeste 18 Nordeste 0 -- -- 68
2020-01-10 14:00:00 13.2 9 Nordeste 16 Nordeste 0 -- -- 72
2020-01-10 13:00:00 12 6 Nordeste 15 Nordeste 0 -- -- 73
2020-01-10 12:00:00 11.2 7 Norte 16 Norte 0 -- -- 77
2020-01-10 11:00:00 9.1 10 Norte 15 Norte 0 -- -- 95
2020-01-10 10:00:00 6.4 4 Nordeste 8 Nordeste 0 -- -- 95
2020-01-10 09:00:00 6.2 4 Nordeste 8 Nordeste 0 -- -- 94
2020-01-10 08:00:00 7 4 Nordeste 7 Nordeste 0 -- -- 93
2020-01-10 07:00:00 7.5 3 Sudeste 8 Sur 0 -- -- 92
2020-01-10 06:00:00 7.3 5 Sudoeste 8 Sudoeste 0 -- -- 92
2020-01-10 05:00:00 7.1 4 Sur 10 Sudoeste 0 -- -- 91
2020-01-10 04:00:00 7.3 6 Sudoeste 10 Sudoeste 0 -- -- 90
2020-01-10 03:00:00 7.7 9 Sur 14 Sudoeste 0 -- -- 90
2020-01-10 02:00:00 8.2 6 Sur 12 Sur 0 -- -- 89
2020-01-10 01:00:00 8.3 5 Sur 12 Sur 0 -- -- 87
2020-01-10 00:00:00 9.4 5 Sudoeste 8 Sudoeste 0 -- -- 86
2020-01-09 23:00:00 9.3 3 Noroeste 9 Oeste 0 -- -- 84
2020-01-09 22:00:00 10 6 Oeste 10 Oeste 0 -- -- 82
2020-01-09 21:00:00 10.1 8 Sudoeste 10 Sudoeste 0 -- -- 81
2020-01-09 20:00:00 10.9 8 Sudoeste 10 Sudoeste 0 -- -- 78
2020-01-09 19:00:00 11.3 6 Oeste 12 Oeste 0 -- -- 77
2020-01-09 18:00:00 12.9 8 Oeste 14 Sudoeste 0 -- -- 73
2020-01-09 17:00:00 14.4 9 Sudoeste 17 Sudoeste 0 -- -- 68
2020-01-09 16:00:00 14.5 10 Oeste 16 Oeste 0 -- -- 67
2020-01-09 15:00:00 14 6 Noroeste 19 Noroeste 0 -- -- 69
2020-01-09 14:00:00 13.1 5 Noroeste 10 Noroeste 0 -- -- 72
2020-01-09 13:00:00 12.3 3 Norte 10 Norte 0 -- -- 75
2020-01-09 12:00:00 10.3 4 Norte 6 Norte 0 -- -- 83
2020-01-09 11:00:00 7.8 5 Noroeste 6 Noroeste 0 -- -- 90
2020-01-09 10:00:00 6.7 4 Este 8 Este 0 -- -- 93
2020-01-09 09:00:00 4.4 5 Este 7 Este 0 -- -- 92
2020-01-09 08:00:00 4.5 5 Este 9 Este 0 -- -- 91
2020-01-09 07:00:00 5.9 0 Calma 4 Sudeste 0 -- -- 91
2020-01-09 06:00:00 5.5 4 Sudeste 7 Este 0 -- -- 90
2020-01-09 05:00:00 6.4 0 Calma 11 Sudoeste 0 -- -- 82
2020-01-09 04:00:00 8.3 9 Sur 15 Sur 0 -- -- 83
2020-01-09 03:00:00 8 10 Sur 13 Sur 0 -- -- 80
2020-01-09 02:00:00 8.8 6 Sur 10 Sur 0 -- -- 74
2020-01-09 01:00:00 9.3 6 Sur 9 Sur 0 -- -- 71
2020-01-09 00:00:00 10.4 6 Sudeste 9 Sudeste 0 -- -- 67
2020-01-08 23:00:00 11.5 3 Sur 7 Sur 0 -- -- 64
2020-01-08 22:00:00 11.8 5 Sur 7 Sudeste 0 -- -- 64
2020-01-08 21:00:00 12.3 4 Sudeste 6 Sur 0 -- -- 58
2020-01-08 20:00:00 12.6 2 Sudoeste 7 Oeste 0 -- -- 60
2020-01-08 19:00:00 14.4 0 Calma 4 Noroeste 0 -- -- 53
2020-01-08 18:00:00 16.8 0 Calma 4 Norte 0 -- -- 49
2020-01-08 17:00:00 17.2 2 Norte 11 Nordeste 0 -- -- 49
2020-01-08 16:00:00 16.7 6 Nordeste 15 Este 0 -- -- 49
2020-01-08 15:00:00 15.9 8 Nordeste 15 Este 0 -- -- 52
2020-01-08 14:00:00 15 6 Nordeste 15 Nordeste 0 -- -- 58
2020-01-08 13:00:00 13.1 9 Nordeste 18 Este 0 -- -- 65
2020-01-08 12:00:00 11.1 12 Nordeste 22 Nordeste 0 -- -- 70
2020-01-08 11:00:00 9.1 13 Nordeste 21 Este 0 -- -- 72
2020-01-08 10:00:00 6.7 9 Nordeste 19 Este 0 -- -- 86
2020-01-08 09:00:00 4.4 7 Nordeste 13 Nordeste 0 -- -- 91
2020-01-08 08:00:00 5.1 8 Nordeste 14 Este 0 -- -- 91
2020-01-08 07:00:00 5.3 9 Este 14 Este 0 -- -- 90
2020-01-08 06:00:00 5.8 8 Nordeste 15 Este 0 -- -- 88
2020-01-08 05:00:00 5.6 9 Este 13 Este 0 -- -- 89
2020-01-08 04:00:00 6.6 4 Este 14 Este 0 -- -- 86
2020-01-08 03:00:00 7.2 8 Este 12 Nordeste 0 -- -- 83
2020-01-08 02:00:00 7.4 8 Este 14 Este 0 -- -- 83
2020-01-08 01:00:00 8.3 4 Este 9 Nordeste 0 -- -- 80
2020-01-08 00:00:00 9.4 5 Este 10 Nordeste 0 -- -- 77
2020-01-07 23:00:00 10 6 Este 9 Este 0 -- -- 75
2020-01-07 22:00:00 10.5 4 Este 7 Este 0 -- -- 73
2020-01-07 21:00:00 11 5 Este 8 Nordeste 0 -- -- 72
2020-01-07 20:00:00 12.3 4 Nordeste 6 Nordeste 0 -- -- 65
2020-01-07 19:00:00 13.6 2 Nordeste 5 Nordeste 0 -- -- 62
2020-01-07 18:00:00 15.5 3 Nordeste 10 Este 0 -- -- 56
2020-01-07 17:00:00 16.6 5 Este 12 Nordeste 0 -- -- 55
2020-01-07 16:00:00 16.7 7 Este 18 Este 0 -- -- 55
2020-01-07 15:00:00 16 10 Este 19 Nordeste 0 -- -- 56
2020-01-07 14:00:00 14.7 9 Nordeste 24 Nordeste 0 -- -- 64
2020-01-07 13:00:00 12.9 10 Nordeste 24 Nordeste 0 -- -- 67
2020-01-07 12:00:00 10.7 15 Nordeste 27 Este 0 -- -- 75
2020-01-07 11:00:00 9 9 Nordeste 19 Nordeste 0 -- -- 82
2020-01-07 10:00:00 6.5 10 Nordeste 20 Nordeste 0 -- -- 93
2020-01-07 09:00:00 4.5 11 Nordeste 19 Nordeste 0 -- -- 94
2020-01-07 08:00:00 5 5 Nordeste 14 Este 0 -- -- 94
2020-01-07 07:00:00 5.4 10 Este 14 Nordeste 0 -- -- 94
2020-01-07 06:00:00 5.1 5 Nordeste 13 Nordeste 0 -- -- 94
2020-01-07 05:00:00 5.2 4 Nordeste 8 Nordeste 0 -- -- 93
2020-01-07 04:00:00 5.9 3 Nordeste 8 Este 0 -- -- 93
2020-01-07 03:00:00 6.7 8 Este 11 Este 0 -- -- 92
2020-01-07 02:00:00 6.8 6 Este 12 Este 0 -- -- 91
2020-01-07 01:00:00 7.5 4 Este 12 Este 0 -- -- 90
2020-01-07 00:00:00 7.9 5 Este 8 Este 0 -- -- 88
2020-01-06 23:00:00 8.9 5 Nordeste 10 Este 0 -- -- 86
2020-01-06 22:00:00 9.4 3 Nordeste 8 Sudeste 0 -- -- 84
2020-01-06 21:00:00 10.2 4 Este 6 Este 0 -- -- 81
2020-01-06 20:00:00 10.9 3 Este 7 Este 0 -- -- 75
2020-01-06 19:00:00 12.8 0 Calma 3 Este 0 -- -- 67
2020-01-06 18:00:00 15.5 0 Calma 6 Sudeste 0 -- -- 64
2020-01-06 17:00:00 15.8 4 Sudeste 10 Este 0 -- -- 59
2020-01-06 16:00:00 15.5 5 Este 14 Este 0 -- -- 63
2020-01-06 15:00:00 14.7 5 Este 10 Este 0 -- -- 67
2020-01-06 14:00:00 13.6 6 Este 12 Este 0 -- -- 70
2020-01-06 13:00:00 11.8 8 Nordeste 15 Nordeste 0 -- -- 76
2020-01-06 12:00:00 10.5 7 Nordeste 12 Nordeste 0 -- -- 82
2020-01-06 11:00:00 8.9 4 Nordeste 17 Este 0 -- -- 92
2020-01-06 10:00:00 6.2 11 Este 17 Este 0 -- -- 96